createdAt,value
2023-11-08T00:02:45.469Z,39.15
2023-11-08T00:05:48.843Z,40.33
2023-11-08T00:08:52.600Z,43.08
2023-11-08T00:11:56.435Z,39.00
2023-11-08T00:15:01.133Z,36.47
2023-11-08T00:18:04.212Z,38.75
2023-11-08T00:21:07.913Z,41.33
2023-11-08T00:24:11.191Z,37.10
2023-11-08T00:27:13.914Z,39.75
2023-11-08T00:30:17.024Z,35.47
2023-11-08T00:33:20.126Z,39.58
2023-11-08T00:36:23.506Z,38.72
2023-11-08T00:39:26.372Z,39.33
2023-11-08T00:42:29.732Z,43.30
2023-11-08T00:45:35.440Z,36.25
2023-11-08T00:48:39.908Z,39.90
2023-11-08T00:51:44.387Z,38.42
2023-11-08T00:54:50.231Z,39.95
2023-11-08T00:57:53.489Z,39.67
2023-11-08T01:00:56.666Z,37.67
2023-11-08T01:04:00.763Z,38.15
2023-11-08T01:07:06.148Z,36.72
2023-11-08T01:10:09.443Z,35.35
2023-11-08T01:13:14.262Z,38.92
2023-11-08T01:16:16.894Z,41.37
2023-11-08T01:19:20.965Z,38.67
2023-11-08T01:22:24.336Z,42.62
2023-11-08T01:25:27.408Z,39.15
2023-11-08T01:28:31.299Z,37.17
2023-11-08T01:31:34.207Z,35.72
2023-11-08T01:34:37.675Z,46.97
2023-11-08T01:37:40.892Z,36.08
2023-11-08T01:40:46.681Z,40.75
2023-11-08T01:43:50.430Z,40.45
2023-11-08T01:46:55.428Z,40.22
2023-11-08T01:49:58.766Z,39.88
2023-11-08T01:53:01.903Z,35.35
2023-11-08T01:56:05.335Z,36.78
2023-11-08T01:59:12.269Z,43.42
2023-11-08T02:02:15.287Z,43.83
2023-11-08T02:05:20.723Z,38.83
2023-11-08T02:08:24.783Z,40.00
2023-11-08T02:11:29.252Z,44.50
2023-11-08T02:14:32.044Z,48.47
2023-11-08T02:17:34.970Z,43.70
2023-11-08T02:20:38.055Z,41.25
2023-11-08T02:23:40.886Z,20.77
2023-11-08T02:26:44.361Z,10.43
2023-11-08T02:29:47.567Z,7.93
2023-11-08T02:32:51.716Z,5.18
2023-11-08T02:35:55.009Z,6.97
2023-11-08T02:38:58.212Z,5.97
2023-11-08T02:42:01.113Z,5.05
2023-11-08T02:45:04.591Z,5.80
2023-11-08T02:48:07.753Z,6.75
2023-11-08T02:51:10.906Z,5.40
2023-11-08T02:54:13.808Z,7.03
2023-11-08T02:57:17.263Z,4.78
2023-11-08T03:00:20.715Z,4.35
2023-11-08T03:03:23.593Z,3.87
2023-11-08T03:06:26.522Z,3.20
2023-11-08T03:09:29.761Z,3.45
2023-11-08T03:12:32.643Z,3.80
2023-11-08T03:15:35.793Z,3.75
2023-11-08T03:18:38.669Z,2.65
2023-11-08T03:21:47.998Z,2.45
2023-11-08T03:24:50.809Z,2.65
2023-11-08T03:27:53.837Z,2.15
2023-11-08T03:30:56.559Z,2.65
2023-11-08T03:34:00.036Z,2.40
2023-11-08T03:37:02.650Z,2.42
2023-11-08T03:40:12.870Z,4.45
2023-11-08T03:43:15.749Z,3.67
2023-11-08T03:46:18.869Z,3.87
2023-11-08T03:49:21.804Z,5.10
2023-11-08T03:52:24.768Z,3.90
2023-11-08T03:55:27.856Z,4.90
2023-11-08T03:58:31.129Z,6.20
2023-11-08T04:01:33.941Z,6.35
2023-11-08T04:04:37.109Z,5.10
2023-11-08T04:07:39.992Z,5.45
2023-11-08T04:10:43.319Z,5.32
2023-11-08T04:13:46.136Z,4.00
2023-11-08T04:16:49.798Z,6.18
2023-11-08T04:19:52.959Z,5.78
2023-11-08T04:22:55.856Z,4.57
2023-11-08T04:25:58.783Z,7.07
2023-11-08T04:29:02.319Z,4.68
2023-11-08T04:32:07.014Z,4.87
2023-11-08T04:35:10.465Z,4.68
2023-11-08T04:38:13.277Z,4.62
2023-11-08T04:41:16.381Z,4.50
2023-11-08T04:44:20.868Z,4.97
2023-11-08T04:47:26.312Z,4.68
2023-11-08T04:50:28.996Z,6.07
2023-11-08T04:53:32.138Z,6.47
2023-11-08T04:56:35.299Z,6.43
2023-11-08T04:59:38.490Z,6.25
2023-11-08T05:02:42.814Z,7.35
2023-11-08T05:05:45.977Z,6.97
2023-11-08T05:08:48.733Z,6.75
2023-11-08T05:11:51.573Z,7.75
2023-11-08T05:14:54.499Z,7.40
2023-11-08T05:17:59.013Z,6.55
2023-11-08T05:21:01.576Z,6.85
2023-11-08T05:24:04.959Z,8.00
2023-11-08T05:27:07.545Z,6.30
2023-11-08T05:30:11.005Z,6.62
2023-11-08T05:33:13.810Z,5.53
2023-11-08T05:36:18.164Z,5.32
2023-11-08T05:39:26.495Z,5.43
2023-11-08T05:42:31.766Z,5.70
2023-11-08T05:45:34.377Z,7.65
2023-11-08T05:48:38.478Z,5.95
2023-11-08T05:51:41.406Z,5.10
2023-11-08T05:54:45.229Z,4.60
2023-11-08T05:57:47.977Z,7.35
2023-11-08T06:00:54.019Z,6.60
2023-11-08T06:03:57.357Z,6.22
2023-11-08T06:07:00.391Z,6.43
2023-11-08T06:10:05.387Z,7.82
2023-11-08T06:13:10.718Z,8.15
2023-11-08T06:16:13.685Z,4.90
2023-11-08T06:19:17.337Z,6.10
2023-11-08T06:22:22.118Z,5.00
2023-11-08T06:25:25.169Z,4.95
2023-11-08T06:28:28.076Z,5.00
2023-11-08T06:31:35.900Z,6.45
2023-11-08T06:34:42.036Z,4.75
2023-11-08T06:37:45.184Z,4.87
2023-11-08T06:40:48.333Z,6.82
2023-11-08T06:43:51.024Z,5.43
2023-11-08T06:46:54.042Z,6.85
2023-11-08T06:49:58.135Z,7.70
2023-11-08T06:53:01.314Z,4.62
2023-11-08T06:56:04.445Z,5.68
2023-11-08T06:59:07.632Z,7.57
2023-11-08T07:02:10.849Z,5.37
2023-11-08T07:05:15.229Z,7.50
2023-11-08T07:08:19.577Z,5.32
2023-11-08T07:11:23.142Z,5.07
2023-11-08T07:14:25.918Z,4.50
2023-11-08T07:17:31.201Z,5.95
2023-11-08T07:20:34.227Z,5.20
2023-11-08T07:23:37.481Z,5.25
2023-11-08T07:26:40.151Z,6.22
2023-11-08T07:29:43.304Z,6.80
2023-11-08T07:32:47.610Z,4.60
2023-11-08T07:35:51.330Z,5.47
2023-11-08T07:38:54.118Z,6.70
2023-11-08T07:41:57.132Z,6.47
2023-11-08T07:45:00.288Z,4.18
2023-11-08T07:48:04.669Z,5.82
2023-11-08T07:51:10.160Z,10.52
2023-11-08T07:54:13.342Z,4.05
2023-11-08T07:57:16.627Z,3.85
2023-11-08T08:00:23.894Z,5.53
2023-11-08T08:03:27.110Z,4.18
2023-11-08T08:06:30.071Z,9.10
2023-11-08T08:09:34.232Z,7.15
2023-11-08T08:12:45.785Z,3.42
2023-11-08T08:15:51.230Z,4.65
2023-11-08T08:18:54.563Z,6.00
2023-11-08T08:21:59.935Z,5.18
2023-11-08T08:25:02.994Z,4.00
2023-11-08T08:28:06.568Z,6.53
2023-11-08T08:31:09.239Z,5.15
2023-11-08T08:34:19.420Z,5.28
2023-11-08T08:37:26.213Z,3.83
2023-11-08T08:40:31.371Z,4.32
2023-11-08T08:43:34.141Z,4.43
2023-11-08T08:46:38.184Z,4.22
2023-11-08T08:49:41.153Z,4.57
2023-11-08T08:52:45.532Z,5.95
2023-11-08T08:55:48.294Z,4.47
2023-11-08T08:58:52.784Z,3.97
2023-11-08T09:01:55.897Z,3.12
2023-11-08T09:04:58.987Z,6.65
2023-11-08T09:08:03.662Z,3.78
2023-11-08T09:11:06.796Z,4.53
2023-11-08T09:14:09.941Z,4.07
2023-11-08T09:17:13.012Z,4.72
2023-11-08T09:20:16.236Z,3.05
2023-11-08T09:23:19.330Z,5.35
2023-11-08T09:26:21.853Z,3.40
2023-11-08T09:29:25.708Z,2.65
2023-11-08T09:32:28.928Z,2.67
2023-11-08T09:35:33.122Z,3.78
2023-11-08T09:38:36.144Z,3.00
2023-11-08T09:41:39.712Z,2.72
2023-11-08T09:44:44.146Z,3.22
2023-11-08T09:47:48.878Z,6.10
2023-11-08T09:50:52.785Z,3.95
2023-11-08T09:53:56.242Z,4.93
2023-11-08T09:57:00.277Z,2.08
2023-11-08T10:00:04.996Z,2.08
2023-11-08T10:03:17.654Z,3.35
2023-11-08T10:06:20.989Z,3.90
2023-11-08T10:09:35.371Z,2.72
2023-11-08T10:12:39.492Z,2.80
2023-11-08T10:15:43.320Z,2.70
2023-11-08T10:19:36.539Z,5.57
2023-11-08T10:22:23.945Z,3.62
2023-11-08T10:25:29.363Z,2.03
2023-11-08T10:28:32.967Z,3.65
2023-11-08T10:31:38.076Z,3.37
2023-11-08T10:34:41.305Z,3.05
2023-11-08T10:37:44.523Z,4.05
2023-11-08T10:40:52.240Z,2.15
2023-11-08T10:44:13.529Z,1.70
2023-11-08T10:47:19.461Z,3.50
2023-11-08T10:50:23.653Z,4.30
2023-11-08T10:53:28.145Z,3.65
2023-11-08T10:56:35.214Z,2.78
2023-11-08T10:59:43.780Z,2.55
2023-11-08T11:02:55.286Z,3.05
2023-11-08T11:06:01.828Z,1.17
2023-11-08T11:09:11.513Z,4.57
2023-11-08T11:12:21.764Z,3.53
2023-11-08T11:15:36.029Z,6.50
2023-11-08T11:18:46.480Z,5.45
2023-11-08T11:21:54.541Z,2.45
2023-11-08T11:24:58.438Z,1.98
2023-11-08T11:28:01.438Z,4.87
2023-11-08T11:31:32.213Z,2.00
2023-11-08T11:34:35.119Z,2.92
2023-11-08T11:37:38.411Z,4.00
2023-11-08T11:40:46.352Z,4.53
2023-11-08T11:43:52.257Z,3.72
2023-11-08T11:46:56.315Z,4.65
2023-11-08T11:50:04.983Z,3.83
2023-11-08T11:53:07.658Z,4.57
2023-11-08T11:56:11.285Z,3.20
2023-11-08T11:59:14.007Z,5.65
2023-11-08T12:02:17.933Z,4.25
2023-11-08T12:05:21.225Z,5.18
2023-11-08T12:08:25.226Z,5.93
2023-11-08T12:11:28.500Z,3.87
2023-11-08T12:14:31.474Z,4.75
2023-11-08T12:17:35.424Z,3.85
2023-11-08T12:20:42.806Z,5.53
2023-11-08T12:23:50.494Z,9.98
2023-11-08T12:26:53.179Z,7.20
2023-11-08T12:29:56.456Z,3.03
2023-11-08T12:33:01.615Z,4.57
2023-11-08T12:36:05.864Z,6.18
2023-11-08T12:39:17.550Z,5.25
2023-11-08T12:42:20.530Z,6.05
2023-11-08T12:46:34.059Z,4.72
2023-11-08T12:48:57.982Z,5.32
2023-11-08T12:52:05.145Z,6.12
2023-11-08T12:58:24.760Z,7.43
2023-11-08T13:01:30.167Z,3.65
2023-11-08T13:04:34.544Z,2.90
2023-11-08T13:07:40.193Z,4.47
2023-11-08T13:10:43.192Z,5.95
2023-11-08T13:13:46.489Z,4.32
2023-11-08T13:16:49.482Z,5.62
2023-11-08T13:19:53.907Z,5.18
2023-11-08T13:22:56.671Z,5.28
2023-11-08T13:26:00.402Z,3.87
2023-11-08T13:29:04.512Z,4.95
2023-11-08T13:32:09.062Z,4.55
2023-11-08T13:35:13.365Z,7.75
2023-11-08T13:38:18.282Z,6.43
2023-11-08T13:41:21.261Z,5.28
2023-11-08T13:44:24.468Z,6.65
2023-11-08T13:47:28.798Z,3.47
2023-11-08T13:50:31.720Z,9.68
2023-11-08T13:53:35.479Z,5.03
2023-11-08T13:56:39.067Z,5.20
2023-11-08T13:59:52.029Z,4.30
2023-11-08T14:03:00.422Z,3.78
2023-11-08T14:06:06.324Z,5.93
2023-11-08T14:09:09.291Z,3.25
2023-11-08T14:12:12.498Z,4.20
2023-11-08T14:15:18.106Z,5.72
2023-11-08T14:18:21.143Z,4.80
2023-11-08T14:21:23.970Z,5.03
2023-11-08T14:24:27.090Z,4.28
2023-11-08T14:27:30.573Z,4.95
2023-11-08T14:30:33.767Z,5.75
2023-11-08T14:33:37.343Z,4.22
2023-11-08T14:36:56.300Z,7.40
2023-11-08T14:40:01.372Z,3.70
2023-11-08T14:43:05.417Z,4.18
2023-11-08T14:46:11.962Z,6.85
2023-11-08T14:49:15.633Z,4.70
2023-11-08T14:52:20.651Z,6.20
2023-11-08T14:55:24.389Z,4.18
2023-11-08T14:58:28.335Z,7.10
2023-11-08T15:01:31.663Z,4.15
2023-11-08T15:04:34.964Z,5.18
2023-11-08T15:09:42.832Z,6.93
2023-11-08T15:11:01.720Z,7.30
2023-11-08T15:14:08.007Z,7.93
2023-11-08T15:17:10.755Z,6.97
2023-11-08T15:20:15.369Z,11.23
2023-11-08T15:23:19.756Z,8.25
2023-11-08T15:26:22.869Z,8.40
2023-11-08T15:29:28.780Z,5.25
2023-11-08T15:32:32.287Z,7.78
2023-11-08T15:35:35.127Z,6.47
2023-11-08T15:38:38.293Z,10.70
2023-11-08T15:41:41.443Z,4.57
2023-11-08T15:44:44.752Z,7.85
2023-11-08T15:47:47.482Z,4.68
2023-11-08T15:50:50.461Z,8.13
2023-11-08T15:53:54.805Z,7.75
2023-11-08T15:56:57.776Z,6.40
2023-11-08T16:00:00.860Z,3.95
2023-11-08T16:03:06.462Z,6.87
2023-11-08T16:06:18.378Z,5.87
2023-11-08T16:09:21.257Z,6.65
2023-11-08T16:12:24.459Z,6.00
2023-11-08T16:15:27.383Z,8.23
2023-11-08T16:18:30.924Z,6.93
2023-11-08T16:21:36.889Z,6.28
2023-11-08T16:24:56.600Z,5.40
2023-11-08T16:28:00.230Z,6.80
2023-11-08T16:32:30.070Z,16.30
2023-11-08T16:34:29.090Z,6.00
2023-11-08T16:37:33.877Z,8.60
2023-11-08T16:40:36.609Z,8.27
2023-11-08T16:43:39.499Z,10.00
2023-11-08T16:46:42.728Z,3.97
2023-11-08T16:49:51.653Z,6.32
2023-11-08T16:52:54.372Z,8.05
2023-11-08T16:55:59.089Z,5.47
2023-11-08T16:59:01.903Z,5.87
2023-11-08T17:02:05.823Z,6.78
2023-11-08T17:05:09.221Z,6.32
2023-11-08T17:08:17.875Z,6.82
2023-11-08T17:11:21.443Z,6.10
2023-11-08T17:14:24.918Z,11.15
2023-11-08T17:17:31.569Z,7.72
2023-11-08T17:20:37.898Z,4.93
2023-11-08T17:23:40.753Z,8.13
2023-11-08T17:26:45.927Z,5.85
2023-11-08T17:29:50.907Z,6.35
2023-11-08T17:32:56.234Z,6.30
2023-11-08T17:36:02.949Z,6.22
2023-11-08T17:39:11.319Z,6.75
2023-11-08T17:42:14.365Z,8.27
2023-11-08T17:45:24.128Z,7.93
2023-11-08T17:48:27.197Z,7.80
2023-11-08T17:51:30.794Z,12.85
2023-11-08T17:54:35.979Z,11.63
2023-11-08T17:57:39.557Z,10.38
2023-11-08T18:00:42.390Z,8.98
2023-11-08T18:03:53.491Z,9.88
2023-11-08T18:06:56.614Z,5.70
2023-11-08T18:09:59.628Z,7.32
2023-11-08T18:13:02.515Z,8.05
2023-11-08T18:16:06.070Z,7.62
2023-11-08T18:19:09.092Z,10.00
2023-11-08T18:22:13.391Z,7.43
2023-11-08T18:25:27.467Z,8.25
2023-11-08T18:28:31.106Z,7.35
2023-11-08T18:31:33.835Z,6.85
2023-11-08T18:34:38.145Z,10.23
2023-11-08T18:37:41.664Z,9.05
2023-11-08T18:40:47.366Z,7.15
2023-11-08T18:43:53.346Z,6.12
2023-11-08T18:46:57.455Z,8.45
2023-11-08T18:50:00.931Z,9.13
2023-11-08T18:53:20.080Z,6.78
2023-11-08T18:56:25.296Z,7.22
2023-11-08T18:59:28.271Z,10.77
2023-11-08T19:02:32.138Z,8.95
2023-11-08T19:05:37.396Z,8.95
2023-11-08T19:08:44.823Z,9.25
2023-11-08T19:11:49.014Z,8.13
2023-11-08T19:14:51.910Z,8.85
2023-11-08T19:17:56.807Z,6.12
2023-11-08T19:21:00.621Z,7.62
2023-11-08T19:24:04.577Z,7.75
2023-11-08T19:27:07.193Z,10.85
2023-11-08T19:30:11.443Z,8.18
2023-11-08T19:33:16.170Z,7.93
2023-11-08T19:36:20.020Z,9.82
2023-11-08T19:39:24.671Z,9.75
2023-11-08T19:42:28.795Z,9.30
2023-11-08T19:45:35.754Z,10.00
2023-11-08T19:48:38.831Z,9.60
2023-11-08T19:51:42.479Z,11.20
2023-11-08T19:54:47.052Z,6.80
2023-11-08T19:57:50.058Z,11.40
2023-11-08T20:00:55.213Z,9.75
2023-11-08T20:03:58.740Z,7.10
2023-11-08T20:07:02.732Z,6.82
2023-11-08T20:10:06.315Z,9.18
2023-11-08T20:13:09.958Z,8.40
2023-11-08T20:16:14.052Z,9.48
2023-11-08T20:19:18.869Z,8.98
2023-11-08T20:22:23.938Z,8.20
2023-11-08T20:25:28.041Z,6.32
2023-11-08T20:28:33.978Z,4.93
2023-11-08T20:31:39.047Z,9.60
2023-11-08T20:34:44.590Z,7.43
2023-11-08T20:37:47.577Z,6.78
2023-11-08T20:40:50.550Z,5.82
2023-11-08T20:43:55.053Z,5.50
2023-11-08T20:47:00.949Z,9.38
2023-11-08T20:50:04.110Z,5.43
2023-11-08T20:53:11.333Z,3.95
2023-11-08T20:56:14.175Z,6.65
2023-11-08T20:59:17.935Z,8.57
2023-11-08T21:02:20.939Z,8.85
2023-11-08T21:05:26.734Z,7.75
2023-11-08T21:08:31.459Z,6.30
2023-11-08T21:11:34.724Z,8.18
2023-11-08T21:14:38.468Z,6.97
2023-11-08T21:17:41.727Z,8.02
2023-11-08T21:20:49.052Z,8.30
2023-11-08T21:23:52.382Z,10.38
2023-11-08T21:26:55.423Z,7.75
2023-11-08T21:29:59.377Z,5.72
2023-11-08T21:33:03.072Z,6.30
2023-11-08T21:36:08.583Z,4.70
2023-11-08T21:39:12.204Z,5.70
2023-11-08T21:42:15.529Z,6.65
2023-11-08T21:45:20.363Z,5.50
2023-11-08T21:48:23.557Z,5.70
2023-11-08T21:51:26.341Z,10.48
2023-11-08T21:54:29.606Z,6.87
2023-11-08T21:57:33.100Z,5.07
2023-11-08T22:00:36.391Z,6.30
2023-11-08T22:03:40.781Z,8.95
2023-11-08T22:06:43.541Z,6.80
2023-11-08T22:09:46.900Z,12.55
2023-11-08T22:12:49.993Z,8.32
2023-11-08T22:16:00.278Z,10.10
2023-11-08T22:19:04.399Z,7.05
2023-11-08T22:22:08.076Z,4.18
2023-11-08T22:25:11.808Z,7.45
2023-11-08T22:28:15.264Z,12.57
2023-11-08T22:31:20.808Z,10.68
2023-11-08T22:34:25.054Z,9.20
2023-11-08T22:37:28.187Z,11.45
2023-11-08T22:40:31.204Z,10.23
2023-11-08T22:43:34.446Z,8.68
2023-11-08T22:46:37.354Z,11.32
2023-11-08T22:49:42.039Z,14.73
2023-11-08T22:52:48.574Z,10.82
2023-11-08T22:55:52.058Z,14.35
2023-11-08T22:58:55.266Z,14.13
2023-11-08T23:02:01.288Z,17.15
2023-11-08T23:05:05.304Z,16.45
2023-11-08T23:08:09.748Z,21.37
2023-11-08T23:11:13.626Z,23.08
2023-11-08T23:14:16.580Z,22.83
2023-11-08T23:17:22.463Z,21.48
2023-11-08T23:20:26.884Z,25.88
2023-11-08T23:23:31.528Z,25.02
2023-11-08T23:26:34.267Z,25.92
2023-11-08T23:29:38.994Z,25.73
2023-11-08T23:32:42.020Z,27.02
2023-11-08T23:35:45.462Z,20.95
2023-11-08T23:38:48.051Z,21.95
2023-11-08T23:41:51.565Z,19.92
2023-11-08T23:44:54.648Z,22.60
2023-11-08T23:47:58.060Z,21.30
2023-11-08T23:51:01.047Z,20.00
2023-11-08T23:54:06.068Z,23.08
2023-11-08T23:57:10.749Z,19.00
